Main page
METAR-TAF:

METAR-TAF

Airports :

Longana Airport

Aoba Island, Vanuatu

latitude: 15-18-24S, longitude: 167-58-02E, elevation: 51 m

Current weather observation

The report was made 1 hour and 43 minutes ago, at 12:00 UTC
Wind 3 kt from the South
Temperature
Pressure 1017 hPa

METAR: NVSG 281200Z AUTO 17003KT //// // NCD ///// Q1017

Time: 00:43 (13:43 UTC)

Forecast

The report was made 3 hours and 43 minutes ago, at 10:00 UTC
Forecast valid from 28 at 12 UTC to 29 at 12 UTC
Wind 4 kt from the East/Southeast
Visibility 10 km or more
Scattered clouds at a height of 2000 ft
Probability 30%
between IN and TE UTC
Visibility: 9000 m
Broken clouds at a height of 1800 ft
light rain showers

TAF: NVSG 281000Z 2812/2912 12004KT 9999 SCT020 PROB30 INTER 2812/2818 9000 -SHRA BKN018

Weather observations and forecasts of more than 4000 airports (METAR and TAF reports).

The available stations are represented by yellow and red dots on the map.

Hover mouse over dot to see the name of the station.

Then click to see weather observations and forecasts.

To change the map : click on the green buttons with a black cross to zoom in, on the green button with a dash to zoom out, or on the green arrows for adjacent maps.


METAR-TAF: